Time;durP1;ratioP1;P1;durP2;ratioP2;P2;SDS_P1;SDS_P2;PMS_P1;PMS_P2;Temp;Humidity;BMP_temperature;BMP_pressure;BME280_temperature;BME280_humidity;BME280_pressure;Samples;Min_cycle;Max_cycle;Signal;HPM_P1;HPM_P2
2021/03/07 00:00:22;;;;;;;11.70;6.62;;;;;;;-1.91;68.65;100529.08;1735068;82;21113;-45
2021/03/07 00:02:52;;;;;;;16.52;8.23;;;;;;;-1.91;68.76;100522.47;1731217;82;21390;-44
2021/03/07 00:09:02;;;;;;;12.60;7.37;;;;;;;-1.90;69.01;100513.67;1748240;79;22839;-45
2021/03/07 00:11:31;;;;;;;14.25;8.38;;;;;;;-1.96;69.36;100509.19;1731521;82;20982;-45
2021/03/07 00:13:59;;;;;;;14.18;8.05;;;;;;;-1.98;69.28;100504.73;1715208;82;21432;-46
2021/03/07 00:16:27;;;;;;;14.68;7.97;;;;;;;-1.98;69.53;100502.09;1715756;82;21010;-45
2021/03/07 00:18:55;;;;;;;13.00;7.67;;;;;;;-2.01;69.66;100494.16;1716141;82;21025;-46
2021/03/07 00:21:23;;;;;;;15.68;8.38;;;;;;;-2.00;69.75;100489.31;1715587;82;21013;-46
2021/03/07 00:23:51;;;;;;;12.53;7.67;;;;;;;-2.04;69.90;100484.84;1716574;82;20966;-44
2021/03/07 00:26:19;;;;;;;13.78;8.60;;;;;;;-2.04;70.17;100484.84;1716488;82;21385;-46
2021/03/07 00:28:47;;;;;;;15.00;8.48;;;;;;;-2.06;70.24;100483.52;1717075;82;21586;-46
2021/03/07 00:31:15;;;;;;;17.05;8.88;;;;;;;-2.06;70.26;100477.34;1716783;82;21042;-45
2021/03/07 00:33:43;;;;;;;16.32;9.50;;;;;;;-2.07;70.58;100475.58;1717161;82;21025;-46
2021/03/07 00:36:12;;;;;;;21.82;8.73;;;;;;;-2.11;70.58;100472.89;1716502;82;21542;-49
2021/03/07 00:38:40;;;;;;;19.15;8.33;;;;;;;-2.11;70.64;100462.31;1717432;82;21385;-50
2021/03/07 00:41:08;;;;;;;16.45;8.88;;;;;;;-2.13;70.83;100454.81;1716968;82;21009;-49
2021/03/07 00:43:36;;;;;;;14.58;8.05;;;;;;;-2.14;70.96;100456.09;1716637;82;21546;-50
2021/03/07 00:46:06;;;;;;;15.10;7.95;;;;;;;-2.14;70.88;100449.05;1715221;82;20982;-51
2021/03/07 00:48:34;;;;;;;12.15;7.75;;;;;;;-2.12;70.98;100443.38;1715314;82;21716;-49
2021/03/07 00:51:03;;;;;;;14.55;7.87;;;;;;;-2.14;71.01;100441.13;1716031;82;21335;-50
2021/03/07 00:53:31;;;;;;;12.73;7.35;;;;;;;-2.14;71.03;100435.84;1716083;82;21057;-51
2021/03/07 00:55:59;;;;;;;17.57;8.45;;;;;;;-2.15;71.03;100426.15;1717213;82;21181;-50
2021/03/07 00:58:27;;;;;;;15.78;8.60;;;;;;;-2.15;70.94;100418.22;1717472;82;21116;-49
2021/03/07 01:00:55;;;;;;;15.75;8.65;;;;;;;-2.12;70.82;100420.91;1716554;82;21131;-50
2021/03/07 01:03:23;;;;;;;14.55;7.40;;;;;;;-2.12;70.83;100417.39;1717076;82;21381;-50
2021/03/07 01:05:51;;;;;;;13.35;7.72;;;;;;;-2.12;70.86;100411.66;1717408;82;21018;-49
2021/03/07 01:08:20;;;;;;;12.55;7.85;;;;;;;-2.13;70.98;100409.90;1722026;82;21188;-46
2021/03/07 01:10:48;;;;;;;15.18;8.03;;;;;;;-2.14;71.02;100409.86;1725941;81;21152;-50
2021/03/07 01:13:17;;;;;;;16.62;9.30;;;;;;;-2.16;71.18;100400.60;1724988;82;21168;-50
2021/03/07 01:15:45;;;;;;;12.88;7.80;;;;;;;-2.19;71.27;100401.88;1725689;81;21546;-49
2021/03/07 01:18:13;;;;;;;13.90;8.03;;;;;;;-2.19;71.52;100389.98;1724729;82;21163;-50
2021/03/07 01:20:42;;;;;;;12.82;6.87;;;;;;;-2.20;71.69;100375.01;1725209;81;21348;-50
2021/03/07 01:23:11;;;;;;;14.78;8.30;;;;;;;-2.23;71.75;100380.28;1725052;82;21013;-49
2021/03/07 01:25:38;;;;;;;13.00;7.97;;;;;;;-2.24;71.98;100375.83;1724287;81;21699;-49
2021/03/07 01:28:07;;;;;;;14.20;7.60;;;;;;;-2.26;72.16;100363.49;1723823;82;22447;-50
2021/03/07 01:30:37;;;;;;;13.05;7.47;;;;;;;-2.28;72.41;100365.24;1724731;81;21200;-50
2021/03/07 01:33:06;;;;;;;14.78;7.80;;;;;;;-2.29;72.47;100361.72;1725726;82;21029;-45
2021/03/07 01:35:34;;;;;;;14.83;7.50;;;;;;;-2.30;72.66;100362.56;1724911;81;21609;-45
2021/03/07 01:38:02;;;;;;;12.20;7.45;;;;;;;-2.30;72.63;100354.64;1724726;82;21021;-46
2021/03/07 01:40:47;;;;;;;11.83;7.28;;;;;;;-2.32;72.86;100361.67;1725588;81;21381;-46
2021/03/07 01:43:16;;;;;;;13.20;7.47;;;;;;;-2.32;72.86;100353.75;1724775;82;21025;-46
2021/03/07 01:45:44;;;;;;;13.22;7.53;;;;;;;-2.32;72.99;100357.70;1724981;81;21140;-45
2021/03/07 01:48:13;;;;;;;13.98;7.47;;;;;;;-2.31;72.97;100358.16;1724644;81;21129;-55
2021/03/07 01:50:44;;;;;;;8.88;6.15;;;;;;;-2.32;73.03;100353.75;1698685;81;21097;-55
2021/03/07 01:53:12;;;;;;;9.98;6.60;;;;;;;-2.32;73.15;100345.83;1725473;82;21375;-55
2021/03/07 01:55:40;;;;;;;10.88;6.33;;;;;;;-2.31;73.15;100350.23;1725348;81;21033;-56
2021/03/07 01:58:23;;;;;;;11.25;6.87;;;;;;;-2.31;73.18;100346.70;1724988;82;21522;-57
2021/03/07 02:00:51;;;;;;;13.08;6.85;;;;;;;-2.31;73.19;100337.02;1725082;81;21143;-56
2021/03/07 02:03:19;;;;;;;10.95;6.53;;;;;;;-2.31;73.23;100332.17;1724782;82;21123;-56
2021/03/07 02:05:47;;;;;;;10.30;6.40;;;;;;;-2.29;73.15;100327.38;1725488;81;21367;-55
2021/03/07 02:08:17;;;;;;;13.00;6.17;;;;;;;-2.29;73.13;100328.70;1722566;82;21648;-56
2021/03/07 02:10:56;;;;;;;9.38;6.33;;;;;;;-2.27;73.10;100324.75;1716252;82;21150;-57
2021/03/07 02:13:31;;;;;;;9.85;6.35;;;;;;;-2.27;73.06;100313.74;1716766;82;21507;-47
2021/03/07 02:16:02;;;;;;;10.43;6.40;;;;;;;-2.26;73.11;100316.83;1717466;82;21398;-46
2021/03/07 02:18:33;;;;;;;12.58;6.78;;;;;;;-2.25;73.11;100314.63;1716724;82;22324;-45
2021/03/07 02:21:23;;;;;;;12.88;6.67;;;;;;;-2.26;73.14;100311.55;1717209;82;21610;-45
2021/03/07 02:24:08;;;;;;;12.68;7.42;;;;;;;-2.26;73.08;100306.27;1717384;82;21100;-45
2021/03/07 02:26:42;;;;;;;8.45;5.65;;;;;;;-2.26;73.08;100300.98;1717134;82;21001;-44
2021/03/07 02:29:10;;;;;;;12.37;6.25;;;;;;;-2.25;73.10;100305.83;1692114;83;21007;-45
2021/03/07 02:31:42;;;;;;;11.50;7.20;;;;;;;-2.26;73.06;100298.34;1716522;82;22288;-44
2021/03/07 02:34:18;;;;;;;12.68;7.40;;;;;;;-2.24;73.01;100283.38;1716958;82;21134;-47
2021/03/07 02:36:51;;;;;;;11.63;6.90;;;;;;;-2.23;72.98;100282.53;1716184;82;21172;-47
2021/03/07 02:39:20;;;;;;;13.50;6.83;;;;;;;-2.21;72.78;100280.78;1717228;82;21121;-45
2021/03/07 02:41:48;;;;;;;11.00;6.55;;;;;;;-2.19;72.69;100272.42;1717073;82;21143;-45
2021/03/07 02:44:19;;;;;;;10.48;6.60;;;;;;;-2.19;72.60;100262.29;1715399;82;21447;-46
2021/03/07 02:46:47;;;;;;;10.08;6.55;;;;;;;-2.18;72.50;100263.65;1713653;82;21144;-46
2021/03/07 02:49:17;;;;;;;11.83;6.55;;;;;;;-2.16;72.42;100259.69;1716546;82;21148;-45
2021/03/07 02:51:46;;;;;;;16.57;6.22;;;;;;;-2.15;72.38;100257.05;1689964;82;21180;-46
2021/03/07 02:54:14;;;;;;;10.60;7.12;;;;;;;-2.15;72.31;100253.53;1716788;82;21077;-45
2021/03/07 02:56:45;;;;;;;10.80;6.70;;;;;;;-2.16;72.16;100242.08;1689665;82;21214;-45
2021/03/07 02:59:15;;;;;;;9.85;5.85;;;;;;;-2.15;72.00;100233.27;1716066;82;21045;-45
2021/03/07 03:01:43;;;;;;;9.48;5.47;;;;;;;-2.13;71.87;100234.19;1717156;82;21025;-57
2021/03/07 03:04:12;;;;;;;13.68;7.33;;;;;;;-2.11;71.75;100230.23;1667451;82;21117;-57
2021/03/07 03:06:42;;;;;;;12.25;7.20;;;;;;;-2.09;71.53;100231.56;1690192;82;21470;-58
2021/03/07 03:09:11;;;;;;;10.15;6.42;;;;;;;-2.07;71.32;100224.55;1714709;82;22600;-57
2021/03/07 03:11:40;;;;;;;11.05;6.42;;;;;;;-2.06;71.18;100225.88;1716748;82;21066;-55
2021/03/07 03:14:13;;;;;;;12.10;6.55;;;;;;;-2.04;71.12;100219.27;1717087;82;21648;-55
2021/03/07 03:16:51;;;;;;;9.75;6.10;;;;;;;-2.04;70.96;100214.88;1716459;82;21596;-57
2021/03/07 03:19:20;;;;;;;15.55;7.58;;;;;;;-2.02;70.82;100212.27;1715150;82;21172;-56
2021/03/07 03:21:48;;;;;;;16.05;7.95;;;;;;;-2.02;70.67;100209.63;1716929;82;21344;-57
2021/03/07 03:24:16;;;;;;;12.15;7.00;;;;;;;-2.01;70.56;100204.77;1716721;82;21132;-56
2021/03/07 03:26:44;;;;;;;12.47;7.47;;;;;;;-1.99;70.46;100191.12;1716726;82;21706;-55
2021/03/07 03:29:12;;;;;;;11.30;5.97;;;;;;;-1.97;70.18;100196.89;1716177;82;20982;-56
2021/03/07 03:31:40;;;;;;;15.70;8.18;;;;;;;-1.95;69.99;100181.03;1717103;82;21116;-49
2021/03/07 03:34:08;;;;;;;12.15;6.33;;;;;;;-1.95;69.84;100177.95;1715945;82;22012;-51
2021/03/07 03:36:39;;;;;;;10.63;6.25;;;;;;;-1.91;69.59;100170.94;1716172;82;21022;-49
2021/03/07 03:39:17;;;;;;;10.25;6.85;;;;;;;-1.91;69.40;100161.69;1715417;82;28262;-50
2021/03/07 03:41:48;;;;;;;12.23;6.37;;;;;;;-1.91;69.29;100155.08;1716299;82;21045;-49
2021/03/07 03:44:20;;;;;;;11.10;6.57;;;;;;;-1.91;69.19;100148.47;1716930;82;21207;-50
2021/03/07 03:46:56;;;;;;;13.00;6.47;;;;;;;-1.85;69.16;100132.65;1792537;76;22781;-50
2021/03/07 03:49:33;;;;;;;10.43;6.95;;;;;;;-1.91;69.08;100136.58;1753372;79;21479;-51
2021/03/07 03:52:05;;;;;;;11.12;6.40;;;;;;;-1.92;69.03;100140.07;1750959;79;22280;-50
2021/03/07 03:54:47;;;;;;;13.00;7.00;;;;;;;-1.91;68.95;100135.26;1758818;79;20989;-50
2021/03/07 03:57:31;;;;;;;13.30;7.53;;;;;;;-1.83;68.98;100129.56;1833663;74;22780;-49
2021/03/07 04:00:02;;;;;;;11.55;7.22;;;;;;;-1.89;68.92;100126.45;1824182;77;20958;-49
2021/03/07 04:02:33;;;;;;;15.40;8.90;;;;;;;-1.88;68.93;100118.08;1824536;77;21475;-49
2021/03/07 04:05:04;;;;;;;15.18;8.18;;;;;;;-1.88;68.93;100108.83;1792048;77;21036;-50
2021/03/07 04:07:32;;;;;;;14.10;7.58;;;;;;;-1.89;68.91;100111.03;1824743;77;20980;-50
2021/03/07 04:10:00;;;;;;;14.05;7.58;;;;;;;-1.88;68.82;100108.83;1823477;77;21542;-51
2021/03/07 04:12:28;;;;;;;12.23;7.97;;;;;;;-1.85;68.80;100099.61;1823624;77;20934;-50
2021/03/07 04:14:57;;;;;;;12.70;8.00;;;;;;;-1.83;68.72;100089.03;1823710;77;21329;-50
2021/03/07 04:17:26;;;;;;;18.07;8.65;;;;;;;-1.83;68.62;100089.91;1823591;77;20985;-51
2021/03/07 04:19:54;;;;;;;12.53;8.03;;;;;;;-1.81;68.55;100085.95;1824784;77;21020;-49
2021/03/07 04:22:23;;;;;;;13.25;7.40;;;;;;;-1.79;68.52;100078.48;1823402;77;21155;-50
2021/03/07 04:24:51;;;;;;;14.55;8.33;;;;;;;-1.76;68.45;100073.19;1824645;77;21659;-50
2021/03/07 04:27:19;;;;;;;15.63;8.43;;;;;;;-1.76;68.37;100062.62;1824648;77;21376;-49
2021/03/07 04:29:47;;;;;;;12.55;7.80;;;;;;;-1.74;68.35;100062.20;1792014;77;21143;-50
2021/03/07 04:32:15;;;;;;;14.55;8.80;;;;;;;-1.73;68.31;100061.33;1783576;78;21160;-49
2021/03/07 04:34:43;;;;;;;11.43;8.05;;;;;;;-1.72;68.25;100052.95;1823838;77;21072;-49
2021/03/07 04:37:12;;;;;;;13.70;7.58;;;;;;;-1.72;68.22;100047.66;1822658;77;20969;-55
2021/03/07 04:39:40;;;;;;;13.80;8.05;;;;;;;-1.69;68.21;100052.98;1824672;77;22308;-56
2021/03/07 04:42:08;;;;;;;13.15;7.20;;;;;;;-1.69;68.15;100034.47;1824945;77;21115;-56
2021/03/07 04:44:38;;;;;;;15.48;8.35;;;;;;;-1.68;68.12;100045.05;1824788;77;21008;-57
2021/03/07 04:47:06;;;;;;;14.07;7.47;;;;;;;-1.67;68.12;100033.58;1823853;77;21588;-58
2021/03/07 04:49:36;;;;;;;13.20;8.23;;;;;;;-1.66;68.12;100035.34;1824223;77;21022;-55
2021/03/07 04:52:04;;;;;;;12.25;7.60;;;;;;;-1.63;68.11;100038.02;1823262;77;21364;-55
2021/03/07 04:54:32;;;;;;;14.50;8.30;;;;;;;-1.62;68.12;100033.16;1825417;77;21557;-56
2021/03/07 04:57:04;;;;;;;13.75;8.18;;;;;;;-1.61;68.12;100034.92;1823797;77;21111;-56
2021/03/07 04:59:33;;;;;;;17.10;9.73;;;;;;;-1.59;68.12;100021.29;1825038;77;21079;-58
2021/03/07 05:02:01;;;;;;;11.90;7.92;;;;;;;-1.59;68.10;100027.90;1824061;77;21510;-55
2021/03/07 05:04:29;;;;;;;16.30;8.43;;;;;;;-1.57;68.14;100009.83;1788976;78;21209;-57
2021/03/07 05:07:01;;;;;;;18.55;8.93;;;;;;;-1.55;68.11;100010.70;1788020;78;21050;-57
2021/03/07 05:09:29;;;;;;;19.55;9.18;;;;;;;-1.55;68.13;100010.70;1787788;78;27630;-57
2021/03/07 05:11:57;;;;;;;18.62;9.63;;;;;;;-1.52;68.17;100017.33;1787403;78;21121;-55
2021/03/07 05:14:25;;;;;;;12.63;8.70;;;;;;;-1.50;68.16;100016.89;1787836;78;21570;-56
2021/03/07 05:16:53;;;;;;;15.15;9.58;;;;;;;-1.48;68.17;100015.15;1787217;78;21365;-56
2021/03/07 05:19:21;;;;;;;18.32;9.58;;;;;;;-1.46;68.11;100003.68;1776928;80;21149;-57
2021/03/07 05:21:49;;;;;;;13.35;8.95;;;;;;;-1.45;68.15;99991.33;1775059;79;21525;-56
2021/03/07 05:24:17;;;;;;;17.85;9.60;;;;;;;-1.42;68.13;99994.00;1760394;79;21115;-57
2021/03/07 05:26:46;;;;;;;16.87;9.20;;;;;;;-1.38;68.05;99987.84;1761135;79;21541;-55
2021/03/07 05:29:14;;;;;;;16.73;9.43;;;;;;;-1.37;68.02;99980.34;1760431;79;21551;-56
2021/03/07 05:31:43;;;;;;;15.48;9.10;;;;;;;-1.32;67.97;100001.08;1760684;79;20960;-57
2021/03/07 05:34:11;;;;;;;16.57;9.90;;;;;;;-1.28;67.87;99994.00;1760622;79;20964;-55
2021/03/07 05:36:39;;;;;;;18.27;10.80;;;;;;;-1.26;67.81;99986.97;1761459;79;21111;-56
2021/03/07 05:39:07;;;;;;;14.70;9.50;;;;;;;-1.25;67.83;99976.38;1761068;79;21046;-57
2021/03/07 05:41:35;;;;;;;18.85;10.32;;;;;;;-1.21;67.89;99984.77;1760963;79;21363;-59
2021/03/07 05:44:03;;;;;;;17.27;10.10;;;;;;;-1.19;67.85;99977.70;1724999;80;21003;-58
2021/03/07 05:46:31;;;;;;;22.35;10.43;;;;;;;-1.15;67.82;99975.52;1761831;79;21202;-56
2021/03/07 05:49:00;;;;;;;17.40;9.80;;;;;;;-1.14;67.73;99973.30;1760782;79;21629;-56
2021/03/07 05:51:28;;;;;;;19.27;10.88;;;;;;;-1.11;67.61;99964.05;1760612;79;21118;-58
2021/03/07 05:53:56;;;;;;;18.05;10.40;;;;;;;-1.08;67.56;99958.73;1761823;79;21409;-54
2021/03/07 05:56:24;;;;;;;16.70;10.13;;;;;;;-1.02;67.55;99958.30;1749775;79;21019;-58
2021/03/07 05:58:52;;;;;;;14.87;9.55;;;;;;;-0.98;67.47;99966.69;1730368;81;21055;-56
2021/03/07 06:01:20;;;;;;;18.25;11.05;;;;;;;-0.94;67.42;99955.22;1728808;81;21175;-56
2021/03/07 06:03:48;;;;;;;21.97;11.90;;;;;;;-0.91;67.27;99955.20;1728887;82;21563;-57
2021/03/07 06:06:16;;;;;;;21.48;10.78;;;;;;;-0.85;67.20;99965.82;1728738;81;22155;-56
2021/03/07 06:08:45;;;;;;;18.57;10.78;;;;;;;-0.82;67.06;99958.73;1729556;81;21059;-58
2021/03/07 06:11:31;;;;;;;20.35;10.85;;;;;;;-0.77;66.96;99932.25;1729534;81;21595;-57
2021/03/07 06:13:59;;;;;;;20.15;10.75;;;;;;;-0.74;66.89;99950.80;1729735;82;21117;-58
2021/03/07 06:16:27;;;;;;;19.87;11.55;;;;;;;-0.71;66.77;99940.19;1730051;81;21543;-56
2021/03/07 06:18:55;;;;;;;20.17;11.03;;;;;;;-0.67;66.58;99934.00;1729352;81;21444;-56
2021/03/07 06:21:34;;;;;;;18.70;11.85;;;;;;;-0.62;66.51;99924.28;1679928;82;21662;-56
2021/03/07 06:24:03;;;;;;;17.02;11.70;;;;;;;-0.57;66.24;99925.16;1730011;81;21610;-59
2021/03/07 06:26:31;;;;;;;23.07;12.58;;;;;;;-0.54;66.13;99931.75;1728648;81;20999;-58
2021/03/07 06:29:08;;;;;;;21.85;11.70;;;;;;;-0.49;65.94;99913.65;1729834;81;21165;-57
2021/03/07 06:31:36;;;;;;;22.80;10.95;;;;;;;-0.47;65.93;99918.52;1729283;82;22264;-58
2021/03/07 06:34:04;;;;;;;19.52;11.40;;;;;;;-0.43;65.83;99922.89;1729308;81;21032;-57
2021/03/07 06:36:33;;;;;;;21.80;11.15;;;;;;;-0.39;65.74;99928.62;1729387;82;21246;-57
2021/03/07 06:39:05;;;;;;;21.65;12.40;;;;;;;-0.38;65.64;99912.72;1729664;82;21141;-59
2021/03/07 06:41:33;;;;;;;20.92;11.88;;;;;;;-0.32;65.59;99914.46;1729485;82;21177;-58
2021/03/07 06:44:17;;;;;;;22.75;12.25;;;;;;;-0.24;65.22;99903.85;1729824;82;21480;-58
2021/03/07 06:46:47;;;;;;;18.95;12.07;;;;;;;-0.19;65.13;99911.34;1729386;82;21587;-58
2021/03/07 06:49:25;;;;;;;22.27;12.10;;;;;;;-0.17;64.96;99895.85;1729402;81;21615;-59
2021/03/07 06:52:00;;;;;;;20.65;12.00;;;;;;;-0.16;64.82;99892.34;1729710;82;21101;-56
2021/03/07 06:54:25;;;;;;;21.05;11.45;;;;;;;-0.13;64.83;99897.61;1703087;82;21141;-58
2021/03/07 06:56:53;;;;;;;19.27;10.98;;;;;;;-0.09;64.71;99886.11;1739370;81;22666;-57
2021/03/07 06:59:24;;;;;;;19.73;11.25;;;;;;;-0.07;64.75;99902.87;1752199;80;21188;-58
2021/03/07 07:01:53;;;;;;;27.45;12.45;;;;;;;-0.01;64.57;99892.23;1732422;81;20989;-59
2021/03/07 07:04:23;;;;;;;20.02;12.20;;;;;;;0.04;64.38;99904.59;1781299;79;21689;-56
2021/03/07 07:07:09;;;;;;;23.75;12.25;;;;;;;0.08;64.27;99883.81;1781754;79;21628;-56
2021/03/07 07:09:41;;;;;;;22.15;12.23;;;;;;;0.13;64.28;99879.36;1781428;79;20999;-58
2021/03/07 07:12:23;;;;;;;16.07;11.33;;;;;;;0.23;64.24;99869.14;1797459;78;22696;-57
2021/03/07 07:14:58;;;;;;;23.18;11.57;;;;;;;0.26;63.96;99877.05;1769285;79;21006;-57
2021/03/07 07:17:26;;;;;;;19.37;11.85;;;;;;;0.32;63.98;99866.43;1762187;79;21930;-58
2021/03/07 07:19:55;;;;;;;25.75;12.78;;;;;;;0.40;63.78;99860.61;1766748;80;21183;-57
2021/03/07 07:22:23;;;;;;;24.57;12.65;;;;;;;0.46;63.59;99855.25;1770197;79;21045;-58
2021/03/07 07:24:51;;;;;;;24.05;11.75;;;;;;;0.54;63.36;99853.01;1769043;79;21021;-56
2021/03/07 07:27:20;;;;;;;21.80;10.80;;;;;;;0.59;63.25;99844.11;1742338;80;20994;-55
2021/03/07 07:29:48;;;;;;;22.58;12.33;;;;;;;0.67;63.10;99854.65;1767188;79;21147;-58
2021/03/07 07:32:39;;;;;;;17.67;12.07;;;;;;;0.73;62.92;99851.94;1769120;79;21021;-59
2021/03/07 07:38:02;;;;;;;18.27;11.50;;;;;;;0.89;62.79;99834.97;1807380;76;22689;-60
2021/03/07 07:40:43;;;;;;;20.95;12.23;;;;;;;0.90;62.64;99822.12;1788017;77;20990;-57
2021/03/07 07:43:12;;;;;;;18.00;10.90;;;;;;;0.92;62.55;99824.33;1772634;79;21198;-60
2021/03/07 07:45:40;;;;;;;23.05;12.58;;;;;;;0.98;62.49;99832.68;1771719;79;20979;-58
2021/03/07 07:48:09;;;;;;;22.52;12.33;;;;;;;1.03;62.50;99838.38;1772240;79;21041;-59
2021/03/07 07:50:39;;;;;;;17.70;11.45;;;;;;;1.03;62.55;99822.45;1772606;79;20974;-56
2021/03/07 07:53:18;;;;;;;21.17;11.85;;;;;;;1.10;62.41;99819.72;1773270;79;21128;-49
2021/03/07 07:55:51;;;;;;;20.95;11.60;;;;;;;1.17;62.34;99812.09;1772914;79;21362;-50
2021/03/07 07:58:41;;;;;;;22.52;11.93;;;;;;;1.33;62.14;99791.09;1818076;76;23117;-49
2021/03/07 08:01:13;;;;;;;19.90;11.60;;;;;;;1.37;61.98;99795.48;1779759;77;21375;-49
2021/03/07 08:03:46;;;;;;;24.27;10.98;;;;;;;1.50;61.69;99794.45;1763423;79;21392;-52
2021/03/07 08:06:30;;;;;;;21.73;10.80;;;;;;;1.55;61.05;99781.11;1757953;79;21001;-47
2021/03/07 08:08:59;;;;;;;22.45;11.68;;;;;;;1.55;60.84;99783.31;1757809;78;21696;-46
2021/03/07 08:11:29;;;;;;;19.60;10.63;;;;;;;1.58;60.61;99789.02;1752685;80;21404;-48
2021/03/07 08:14:00;;;;;;;24.63;10.68;;;;;;;1.61;60.42;99766.86;1758483;79;20989;-50
2021/03/07 08:16:42;;;;;;;15.30;9.80;;;;;;;1.64;60.35;99769.00;1756139;78;22270;-47
2021/03/07 08:19:18;;;;;;;24.95;9.93;;;;;;;1.65;60.15;99740.22;1753775;78;21035;-46
2021/03/07 08:24:56;;;;;;;19.32;10.48;;;;;;;1.67;59.92;99750.81;1808302;76;22606;-48
2021/03/07 08:27:39;;;;;;;16.65;10.23;;;;;;;1.63;59.83;99735.80;1778759;77;20994;-48
2021/03/07 08:30:10;;;;;;;15.55;10.45;;;;;;;1.60;59.87;99743.80;1774693;79;21455;-47
2021/03/07 08:32:45;;;;;;;20.68;9.88;;;;;;;1.60;60.08;99738.48;1773590;79;20977;-48
2021/03/07 08:35:27;;;;;;;21.02;9.53;;;;;;;1.61;60.05;99746.47;1774076;79;20994;-51
2021/03/07 08:38:16;;;;;;;15.50;9.95;;;;;;;1.61;60.08;99742.93;1774094;79;21021;-50
2021/03/07 08:40:56;;;;;;;18.50;9.58;;;;;;;1.64;60.07;99734.90;1774280;79;21022;-52
2021/03/07 08:43:30;;;;;;;22.67;10.05;;;;;;;1.66;60.04;99733.11;1772841;79;21464;-53
2021/03/07 08:46:02;;;;;;;25.43;10.40;;;;;;;1.65;60.08;99733.98;1774150;79;21006;-48
2021/03/07 08:48:31;;;;;;;19.48;10.68;;;;;;;1.57;60.15;99727.02;1773652;79;20931;-48
2021/03/07 08:51:00;;;;;;;21.30;10.90;;;;;;;1.56;60.33;99739.88;1772806;79;20978;-48
2021/03/07 08:53:31;;;;;;;20.95;10.30;;;;;;;1.56;60.46;99730.58;1774913;79;20947;-49
2021/03/07 08:55:59;;;;;;;18.17;9.95;;;;;;;1.60;60.55;99733.17;1771518;79;21209;-54
2021/03/07 08:58:27;;;;;;;19.55;10.15;;;;;;;1.65;60.37;99724.69;1773273;79;20978;-46
2021/03/07 09:00:56;;;;;;;19.00;10.20;;;;;;;1.71;60.42;99720.64;1773103;79;21215;-48
2021/03/07 09:03:26;;;;;;;17.80;10.63;;;;;;;1.75;60.36;99722.33;1774087;79;21151;-48
2021/03/07 09:05:54;;;;;;;19.35;10.55;;;;;;;1.81;60.27;99722.22;1773238;79;21546;-48
2021/03/07 09:08:25;;;;;;;20.08;9.68;;;;;;;1.85;60.13;99722.61;1774452;79;21369;-50
2021/03/07 09:10:56;;;;;;;19.47;9.90;;;;;;;1.83;60.05;99721.77;1774058;79;21033;-49
2021/03/07 09:13:26;;;;;;;18.82;10.08;;;;;;;1.80;60.21;99721.34;1774587;79;21223;-50
2021/03/07 09:16:03;;;;;;;19.90;10.53;;;;;;;1.76;60.27;99714.80;1773906;79;21616;-51
2021/03/07 09:18:34;;;;;;;22.87;10.35;;;;;;;1.72;60.54;99709.09;1773686;79;21648;-49
2021/03/07 09:21:10;;;;;;;20.40;11.40;;;;;;;1.75;60.61;99713.02;1774428;79;21734;-48
2021/03/07 09:23:46;;;;;;;17.95;9.68;;;;;;;1.75;60.62;99701.05;1777411;79;21057;-50
2021/03/07 09:26:16;;;;;;;16.73;10.03;;;;;;;1.73;60.69;99697.55;1781631;79;20969;-50
2021/03/07 09:28:53;;;;;;;21.82;10.23;;;;;;;1.77;60.78;99701.48;1782145;79;21115;-50
2021/03/07 09:31:33;;;;;;;21.12;11.35;;;;;;;1.80;60.78;99699.20;1780914;79;21041;-49
2021/03/07 09:34:04;;;;;;;19.87;10.65;;;;;;;1.79;60.78;99694.80;1781145;79;21386;-51
2021/03/07 09:36:38;;;;;;;18.23;10.15;;;;;;;1.79;60.75;99687.70;1781268;79;21541;-49
2021/03/07 09:39:07;;;;;;;18.62;9.75;;;;;;;1.79;60.74;99694.80;1780195;79;21049;-50
2021/03/07 09:41:44;;;;;;;15.55;9.25;;;;;;;1.79;60.79;99703.64;1740909;80;21685;-49
2021/03/07 09:44:20;;;;;;;18.95;10.18;;;;;;;1.78;60.90;99695.70;1780725;79;21092;-50
2021/03/07 09:46:51;;;;;;;21.95;9.90;;;;;;;1.77;61.00;99700.60;1776265;79;21342;-50
2021/03/07 09:49:22;;;;;;;16.40;9.33;;;;;;;1.80;61.08;99699.20;1779528;79;21025;-49
2021/03/07 09:51:52;;;;;;;19.42;9.50;;;;;;;1.82;61.07;99696.09;1780081;79;21147;-51
2021/03/07 09:54:20;;;;;;;15.40;9.50;;;;;;;1.80;61.02;99699.20;1780634;79;21021;-49
2021/03/07 09:56:52;;;;;;;15.20;8.68;;;;;;;1.80;61.10;99703.19;1777551;79;21952;-51
2021/03/07 09:59:25;;;;;;;14.68;9.88;;;;;;;1.82;61.19;99700.08;1777997;79;21613;-49
2021/03/07 10:02:04;;;;;;;17.32;10.03;;;;;;;1.85;61.15;99696.02;1778249;79;21132;-50
2021/03/07 10:04:46;;;;;;;14.85;9.55;;;;;;;1.91;61.20;99685.28;1858874;74;22071;-51
2021/03/07 10:07:21;;;;;;;17.42;9.43;;;;;;;1.83;61.19;99701.83;1817953;76;20938;-49
2021/03/07 10:10:19;;;;;;;19.17;9.83;;;;;;;1.80;61.42;99699.20;1810611;77;21184;-50
2021/03/07 10:12:58;;;;;;;17.95;9.13;;;;;;;1.79;61.57;99688.15;1811056;77;21652;-50
2021/03/07 10:15:31;;;;;;;16.62;9.68;;;;;;;1.79;61.63;99694.80;1810613;77;20926;-49
2021/03/07 10:18:04;;;;;;;16.77;9.50;;;;;;;1.82;61.60;99684.12;1811527;75;20999;-50
2021/03/07 10:20:38;;;;;;;16.48;9.55;;;;;;;1.85;61.59;99684.06;1809708;77;21099;-52
2021/03/07 10:23:18;;;;;;;16.97;9.40;;;;;;;1.90;61.59;99678.22;1805468;76;22765;-52
2021/03/07 10:25:47;;;;;;;15.00;9.55;;;;;;;1.87;61.64;99676.95;1779271;77;21014;-51
2021/03/07 10:28:26;;;;;;;17.12;10.40;;;;;;;1.86;61.61;99677.83;1749782;79;21208;-51
2021/03/07 10:31:08;;;;;;;16.82;10.25;;;;;;;1.85;61.78;99668.10;1757128;79;21017;-51
2021/03/07 10:33:36;;;;;;;16.25;10.30;;;;;;;1.89;61.77;99668.49;1748974;79;21537;-47
2021/03/07 10:36:11;;;;;;;16.65;9.95;;;;;;;1.93;61.65;99657.36;1754097;79;20990;-46
2021/03/07 10:38:46;;;;;;;19.52;9.63;;;;;;;1.91;61.60;99661.35;1751064;79;21597;-46
2021/03/07 10:41:27;;;;;;;16.97;9.95;;;;;;;1.94;61.70;99651.13;1749666;79;21370;-46
2021/03/07 10:43:56;;;;;;;17.40;10.13;;;;;;;1.97;61.73;99646.66;1753338;79;21013;-45
2021/03/07 10:46:41;;;;;;;12.20;8.80;;;;;;;1.96;61.70;99634.69;1757870;79;21501;-46
2021/03/07 10:49:11;;;;;;;17.02;9.68;;;;;;;1.96;61.69;99638.22;1751742;79;21218;-48
2021/03/07 10:51:40;;;;;;;15.80;9.93;;;;;;;1.96;61.63;99636.89;1755642;79;20982;-47
2021/03/07 10:54:08;;;;;;;14.98;8.98;;;;;;;1.95;61.76;99625.83;1701314;79;21223;-46
2021/03/07 10:56:43;;;;;;;17.15;10.15;;;;;;;1.98;61.74;99615.16;1753647;79;21493;-46
2021/03/07 10:59:11;;;;;;;16.87;9.48;;;;;;;2.03;61.72;99622.61;1752577;79;21033;-46
2021/03/07 11:01:39;;;;;;;23.15;10.63;;;;;;;2.06;61.66;99611.89;1756228;78;21146;-46
2021/03/07 11:04:09;;;;;;;14.78;8.80;;;;;;;2.08;61.52;99610.10;1758655;79;21124;-45
2021/03/07 11:06:36;;;;;;;15.50;9.43;;;;;;;2.10;61.53;99609.61;1759177;79;22350;-47
2021/03/07 11:09:06;;;;;;;15.43;9.58;;;;;;;2.17;61.57;99604.17;1750910;79;21148;-46
2021/03/07 11:11:34;;;;;;;14.10;9.68;;;;;;;2.20;61.48;99602.80;1756853;79;20997;-47
2021/03/07 11:14:03;;;;;;;16.15;9.50;;;;;;;2.24;61.23;99591.20;1759157;79;21549;-45
2021/03/07 11:16:31;;;;;;;14.33;9.15;;;;;;;2.24;61.10;99593.86;1755670;79;21664;-50
2021/03/07 11:19:01;;;;;;;17.73;9.95;;;;;;;2.27;61.20;99596.44;1750645;79;22227;-57
2021/03/07 11:21:28;;;;;;;16.67;8.05;;;;;;;2.25;61.22;99596.94;1757360;79;21797;-51
2021/03/07 11:23:56;;;;;;;15.72;8.80;;;;;;;2.22;61.34;99595.65;1761827;79;21127;-48
2021/03/07 11:26:24;;;;;;;14.23;8.90;;;;;;;2.21;61.43;99581.93;1766081;79;21132;-48
2021/03/07 11:28:52;;;;;;;16.25;10.38;;;;;;;2.22;61.54;99587.67;1764902;79;20977;-48
2021/03/07 11:31:20;;;;;;;17.55;9.63;;;;;;;2.22;61.65;99582.35;1757830;79;21363;-49
2021/03/07 11:33:48;;;;;;;17.55;9.43;;;;;;;2.22;61.58;99578.36;1757444;79;21002;-50
2021/03/07 11:36:16;;;;;;;26.17;9.63;;;;;;;2.23;61.42;99576.11;1756259;79;21096;-49
2021/03/07 11:38:44;;;;;;;17.35;8.75;;;;;;;2.23;61.44;99569.47;1763011;79;21692;-50
2021/03/07 11:41:12;;;;;;;16.48;8.63;;;;;;;2.19;61.49;99571.79;1765473;79;21147;-55
2021/03/07 11:43:40;;;;;;;18.50;10.13;;;;;;;2.18;61.62;99555.38;1765748;79;22098;-51
2021/03/07 11:46:09;;;;;;;20.27;8.85;;;;;;;2.20;61.64;99571.75;1761157;79;21553;-47
2021/03/07 11:48:37;;;;;;;17.62;8.80;;;;;;;2.20;61.59;99573.53;1761880;79;21189;-45